Time,TemperatureF,DewpointF,PressureIn,WindDirection,WindDirectionDegrees,WindSpeedMPH,WindSpeedGustMPH,Humidity,HourlyPrecipIn,Conditions,Clouds,dailyrainin,SoftwareType,DateUTC
2013-03-21 00:07:00,41.6,40.0,29.85,East,94,0.0,1.0,93,0.00,,,0.00,weatherlink.com 1.10,2013-03-21 04:07:00,
2013-03-21 00:22:00,41.1,39.0,29.85,East,94,0.0,1.0,93,0.00,,,0.00,weatherlink.com 1.10,2013-03-21 04:22:00,
2013-03-21 00:37:00,40.8,39.0,29.85,East,94,1.0,2.0,93,0.00,,,0.00,weatherlink.com 1.10,2013-03-21 04:37:00,
2013-03-21 00:52:00,40.8,39.0,29.85,East,94,1.0,1.0,94,0.00,,,0.00,weatherlink.com 1.10,2013-03-21 04:52:00,
2013-03-21 01:07:00,40.6,39.0,29.84,East,94,0.0,1.0,94,0.00,,,0.00,weatherlink.com 1.10,2013-03-21 05:07:00,
2013-03-21 01:22:00,40.5,39.0,29.84,East,94,1.0,1.0,93,0.00,,,0.00,weatherlink.com 1.10,2013-03-21 05:22:00,
2013-03-21 01:37:00,40.0,38.0,29.84,East,94,0.0,1.0,93,0.00,,,0.00,weatherlink.com 1.10,2013-03-21 05:37:00,
2013-03-21 01:53:00,39.7,38.0,29.84,East,94,0.0,1.0,93,0.00,,,0.00,weatherlink.com 1.10,2013-03-21 05:53:00,
2013-03-21 02:08:00,39.7,38.0,29.84,East,94,0.0,1.0,93,0.00,,,0.00,weatherlink.com 1.10,2013-03-21 06:08:00,
2013-03-21 02:23:00,39.9,37.0,29.84,NW,309,1.0,2.0,90,0.00,,,0.00,weatherlink.com 1.10,2013-03-21 06:23:00,
2013-03-21 02:38:00,40.6,37.0,29.83,NW,309,1.0,1.0,85,0.00,,,0.00,weatherlink.com 1.10,2013-03-21 06:38:00,
2013-03-21 02:53:00,42.0,35.0,29.83,WNW,293,1.0,2.0,77,0.00,,,0.00,weatherlink.com 1.10,2013-03-21 06:53:00,
2013-03-21 03:07:00,43.6,34.0,29.83,WNW,300,3.0,4.0,70,0.00,,,0.00,weatherlink.com 1.10,2013-03-21 07:07:00,
2013-03-21 03:22:00,43.3,34.0,29.83,West,277,1.0,2.0,69,0.00,,,0.00,weatherlink.com 1.10,2013-03-21 07:22:00,
2013-03-21 03:37:00,43.5,33.0,29.84,West,259,1.0,2.0,67,0.00,,,0.00,weatherlink.com 1.10,2013-03-21 07:37:00,
2013-03-21 03:52:00,43.9,33.0,29.83,WNW,282,0.0,2.0,65,0.00,,,0.00,weatherlink.com 1.10,2013-03-21 07:52:00,
2013-03-21 04:07:00,44.4,32.0,29.83,West,281,1.0,6.0,63,0.00,,,0.00,weatherlink.com 1.10,2013-03-21 08:07:00,
2013-03-21 04:22:00,44.6,30.0,29.82,West,265,1.0,5.0,58,0.00,,,0.00,weatherlink.com 1.10,2013-03-21 08:22:00,
2013-03-21 04:37:00,46.2,31.0,29.82,WNW,291,2.0,7.0,55,0.00,,,0.00,weatherlink.com 1.10,2013-03-21 08:37:00,
2013-03-21 04:52:00,47.0,30.0,29.84,WSW,242,1.0,5.0,53,0.00,,,0.00,weatherlink.com 1.10,2013-03-21 08:52:00,
2013-03-21 05:07:00,46.7,30.0,29.84,WSW,253,1.0,7.0,52,0.00,,,0.00,weatherlink.com 1.10,2013-03-21 09:07:00,
2013-03-21 05:22:00,45.6,30.0,29.85,WNW,287,0.0,4.0,55,0.00,,,0.00,weatherlink.com 1.10,2013-03-21 09:22:00,
2013-03-21 05:37:00,45.6,30.0,29.86,WSW,246,1.0,6.0,54,0.00,,,0.00,weatherlink.com 1.10,2013-03-21 09:37:00,
2013-03-21 05:52:00,45.1,30.0,29.86,West,269,2.0,5.0,55,0.00,,,0.00,weatherlink.com 1.10,2013-03-21 09:52:00,
2013-03-21 06:07:00,45.0,30.0,29.87,West,271,1.0,4.0,55,0.00,,,0.00,weatherlink.com 1.10,2013-03-21 10:07:00,
2013-03-21 06:22:00,44.5,29.0,29.88,NW,304,3.0,5.0,55,0.00,,,0.00,weatherlink.com 1.10,2013-03-21 10:22:00,
2013-03-21 06:38:00,44.0,29.0,29.88,WNW,282,0.0,4.0,57,0.00,,,0.00,weatherlink.com 1.10,2013-03-21 10:38:00,
2013-03-21 06:53:00,43.9,28.0,29.88,SW,227,4.0,8.0,53,0.00,,,0.00,weatherlink.com 1.10,2013-03-21 10:53:00,
2013-03-21 07:08:00,43.2,27.0,29.88,West,266,2.0,3.0,54,0.00,,,0.00,weatherlink.com 1.10,2013-03-21 11:08:00,
2013-03-21 07:38:00,41.9,28.0,29.89,WNW,297,0.0,0.0,58,0.00,,,0.00,weatherlink.com 1.10,2013-03-21 11:38:00,
2013-03-21 07:53:00,41.9,28.0,29.89,WNW,300,1.0,5.0,58,0.00,,,0.00,weatherlink.com 1.10,2013-03-21 11:53:00,
2013-03-21 08:08:00,42.3,28.0,29.89,NW,306,1.0,4.0,57,0.00,,,0.00,weatherlink.com 1.10,2013-03-21 12:08:00,
2013-03-21 08:23:00,43.1,28.0,29.89,NNW,330,1.0,3.0,55,0.00,,,0.00,weatherlink.com 1.10,2013-03-21 12:23:00,
2013-03-21 08:38:00,44.2,29.0,29.89,WNW,297,0.0,4.0,55,0.00,,,0.00,weatherlink.com 1.10,2013-03-21 12:38:00,
2013-03-21 08:53:00,44.7,28.0,29.89,WSW,239,1.0,6.0,53,0.00,,,0.00,weatherlink.com 1.10,2013-03-21 12:53:00,
2013-03-21 09:09:00,45.1,27.0,29.89,WSW,257,3.0,7.0,50,0.00,,,0.00,weatherlink.com 1.10,2013-03-21 13:09:00,
2013-03-21 09:23:00,46.1,27.0,29.89,West,270,2.0,9.0,48,0.00,,,0.00,weatherlink.com 1.10,2013-03-21 13:23:00,
2013-03-21 09:38:00,47.0,28.0,29.89,NW,311,2.0,5.0,47,0.00,,,0.00,weatherlink.com 1.10,2013-03-21 13:38:00,
2013-03-21 09:53:00,47.2,29.0,29.89,West,261,3.0,8.0,49,0.00,,,0.00,weatherlink.com 1.10,2013-03-21 13:53:00,
2013-03-21 10:08:00,47.9,28.0,29.89,WSW,240,9.0,9.0,46,0.00,,,0.00,weatherlink.com 1.10,2013-03-21 14:08:00,
2013-03-21 10:23:00,48.6,28.0,29.89,WNW,290,3.0,7.0,46,0.00,,,0.00,weatherlink.com 1.10,2013-03-21 14:23:00,
2013-03-21 10:38:00,49.2,28.0,29.89,West,277,2.0,7.0,44,0.00,,,0.00,weatherlink.com 1.10,2013-03-21 14:38:00,
2013-03-21 10:53:00,50.0,29.0,29.89,WSW,246,2.0,7.0,44,0.00,,,0.00,weatherlink.com 1.10,2013-03-21 14:53:00,
2013-03-21 11:08:00,52.1,29.0,29.89,NW,325,2.0,7.0,41,0.00,,,0.00,weatherlink.com 1.10,2013-03-21 15:08:00,
2013-03-21 11:23:00,53.2,27.0,29.89,NW,324,3.0,7.0,37,0.00,,,0.00,weatherlink.com 1.10,2013-03-21 15:23:00,
2013-03-21 11:53:00,54.5,25.0,29.89,West,259,3.0,8.0,32,0.00,,,0.00,weatherlink.com 1.10,2013-03-21 15:53:00,
2013-03-21 12:08:00,55.5,23.0,29.88,West,279,3.0,9.0,28,0.00,,,0.00,weatherlink.com 1.10,2013-03-21 16:08:00,
2013-03-21 12:23:00,56.6,23.0,29.87,WSW,239,4.0,11.0,27,0.00,,,0.00,weatherlink.com 1.10,2013-03-21 16:23:00,
2013-03-21 12:39:00,55.6,24.0,29.87,West,271,3.0,9.0,29,0.00,,,0.00,weatherlink.com 1.10,2013-03-21 16:39:00,
2013-03-21 12:53:00,57.3,22.0,29.87,NW,310,3.0,6.0,25,0.00,,,0.00,weatherlink.com 1.10,2013-03-21 16:53:00,
2013-03-21 13:08:00,56.7,20.0,29.87,ESE,114,2.0,7.0,24,0.00,,,0.00,weatherlink.com 1.10,2013-03-21 17:08:00,
2013-03-21 13:23:00,57.2,18.0,29.86,SW,221,3.0,9.0,22,0.00,,,0.00,weatherlink.com 1.10,2013-03-21 17:23:00,
2013-03-21 13:38:00,58.5,18.0,29.86,NNE,17,3.0,8.0,21,0.00,,,0.00,weatherlink.com 1.10,2013-03-21 17:38:00,
2013-03-21 13:53:00,59.2,21.0,29.85,NW,325,1.0,9.0,23,0.00,,,0.00,weatherlink.com 1.10,2013-03-21 17:53:00,
2013-03-21 14:08:00,59.0,17.0,29.86,WNW,300,10.0,10.0,19,0.00,,,0.00,weatherlink.com 1.10,2013-03-21 18:08:00,
2013-03-21 14:23:00,58.5,16.0,29.85,WSW,252,3.0,9.0,19,0.00,,,0.00,weatherlink.com 1.10,2013-03-21 18:23:00,
2013-03-21 14:38:00,59.0,18.0,29.85,NE,36,1.0,8.0,20,0.00,,,0.00,weatherlink.com 1.10,2013-03-21 18:38:00,
2013-03-21 14:53:00,58.3,16.0,29.84,North,355,2.0,11.0,19,0.00,,,0.00,weatherlink.com 1.10,2013-03-21 18:53:00,
2013-03-21 15:08:00,58.4,16.0,29.84,West,270,4.0,9.0,19,0.00,,,0.00,weatherlink.com 1.10,2013-03-21 19:08:00,
2013-03-21 15:23:00,58.4,18.0,29.84,WNW,282,4.0,9.0,21,0.00,,,0.00,weatherlink.com 1.10,2013-03-21 19:23:00,
2013-03-21 15:38:00,59.3,18.0,29.84,NW,317,3.0,10.0,20,0.00,,,0.00,weatherlink.com 1.10,2013-03-21 19:38:00,
2013-03-21 15:53:00,58.3,19.0,29.83,NE,50,2.0,8.0,22,0.00,,,0.00,weatherlink.com 1.10,2013-03-21 19:53:00,
2013-03-21 16:08:00,58.5,21.0,29.83,NNW,328,5.0,9.0,23,0.00,,,0.00,weatherlink.com 1.10,2013-03-21 20:08:00,
2013-03-21 16:23:00,57.5,18.0,29.83,WNW,297,1.0,8.0,21,0.00,,,0.00,weatherlink.com 1.10,2013-03-21 20:23:00,
2013-03-21 16:38:00,57.3,17.0,29.83,ENE,59,2.0,7.0,21,0.00,,,0.00,weatherlink.com 1.10,2013-03-21 20:38:00,
2013-03-21 16:53:00,56.0,17.0,29.83,WSW,251,2.0,7.0,22,0.00,,,0.00,weatherlink.com 1.10,2013-03-21 20:53:00,
2013-03-21 17:08:00,55.5,18.0,29.83,West,273,2.0,10.0,23,0.00,,,0.00,weatherlink.com 1.10,2013-03-21 21:08:00,
2013-03-21 17:23:00,55.7,18.0,29.84,NW,306,2.0,5.0,23,0.00,,,0.00,weatherlink.com 1.10,2013-03-21 21:23:00,
2013-03-21 17:38:00,56.4,19.0,29.84,SW,223,2.0,7.0,23,0.00,,,0.00,weatherlink.com 1.10,2013-03-21 21:38:00,
2013-03-21 17:53:00,56.1,19.0,29.84,West,272,2.0,6.0,23,0.00,,,0.00,weatherlink.com 1.10,2013-03-21 21:53:00,
2013-03-21 18:08:00,56.2,21.0,29.84,WSW,254,1.0,5.0,25,0.00,,,0.00,weatherlink.com 1.10,2013-03-21 22:08:00,
2013-03-21 18:24:00,55.5,22.0,29.84,West,277,2.0,7.0,27,0.00,,,0.00,weatherlink.com 1.10,2013-03-21 22:24:00,
2013-03-21 18:39:00,55.2,22.0,29.84,West,279,1.0,3.0,27,0.00,,,0.00,weatherlink.com 1.10,2013-03-21 22:39:00,
2013-03-21 18:54:00,54.5,21.0,29.85,WSW,254,1.0,4.0,27,0.00,,,0.00,weatherlink.com 1.10,2013-03-21 22:54:00,
2013-03-21 19:09:00,53.5,21.0,29.86,West,261,0.0,6.0,28,0.00,,,0.00,weatherlink.com 1.10,2013-03-21 23:09:00,
2013-03-21 19:24:00,52.8,20.0,29.86,NW,306,2.0,3.0,28,0.00,,,0.00,weatherlink.com 1.10,2013-03-21 23:24:00,
2013-03-21 19:39:00,51.7,21.0,29.87,WSW,258,0.0,3.0,30,0.00,,,0.00,weatherlink.com 1.10,2013-03-21 23:39:00,
2013-03-21 19:54:00,50.3,22.0,29.88,WSW,258,0.0,1.0,33,0.00,,,0.00,weatherlink.com 1.10,2013-03-21 23:54:00,
2013-03-21 20:09:00,48.8,23.0,29.88,WSW,258,0.0,2.0,37,0.00,,,0.00,weatherlink.com 1.10,2013-03-22 00:09:00,
2013-03-21 20:24:00,47.7,24.0,29.90,WSW,258,0.0,1.0,40,0.00,,,0.00,weatherlink.com 1.10,2013-03-22 00:24:00,
2013-03-21 20:39:00,46.2,26.0,29.90,WSW,258,0.0,1.0,45,0.00,,,0.00,weatherlink.com 1.10,2013-03-22 00:39:00,
2013-03-21 20:54:00,45.1,27.0,29.90,WSW,258,0.0,0.0,50,0.00,,,0.00,weatherlink.com 1.10,2013-03-22 00:54:00,
2013-03-21 21:09:00,44.0,27.0,29.91,WSW,258,1.0,1.0,52,0.00,,,0.00,weatherlink.com 1.10,2013-03-22 01:09:00,
2013-03-21 21:24:00,42.5,27.0,29.91,WSW,258,0.0,1.0,55,0.00,,,0.00,weatherlink.com 1.10,2013-03-22 01:24:00,
2013-03-21 21:39:00,41.2,26.0,29.91,WSW,258,0.0,2.0,55,0.00,,,0.00,weatherlink.com 1.10,2013-03-22 01:39:00,
2013-03-21 21:54:00,41.3,27.0,29.92,WSW,258,0.0,1.0,58,0.00,,,0.00,weatherlink.com 1.10,2013-03-22 01:54:00,
2013-03-21 22:09:00,40.3,28.0,29.92,WSW,258,0.0,1.0,61,0.00,,,0.00,weatherlink.com 1.10,2013-03-22 02:09:00,
2013-03-21 22:24:00,39.0,28.0,29.93,WSW,258,0.0,1.0,64,0.00,,,0.00,weatherlink.com 1.10,2013-03-22 02:24:00,
2013-03-21 22:39:00,38.3,29.0,29.94,WSW,258,0.0,1.0,70,0.00,,,0.00,weatherlink.com 1.10,2013-03-22 02:39:00,
2013-03-21 22:54:00,38.4,30.0,29.95,WSW,258,0.0,1.0,72,0.00,,,0.00,weatherlink.com 1.10,2013-03-22 02:54:00,
2013-03-21 23:09:00,37.8,31.0,29.95,WSW,258,1.0,1.0,75,0.00,,,0.00,weatherlink.com 1.10,2013-03-22 03:09:00,
2013-03-21 23:24:00,37.8,31.0,29.95,WSW,258,0.0,1.0,75,0.00,,,0.00,weatherlink.com 1.10,2013-03-22 03:24:00,
2013-03-21 23:39:00,38.3,30.0,29.94,WSW,258,0.0,1.0,72,0.00,,,0.00,weatherlink.com 1.10,2013-03-22 03:39:00,
2013-03-21 23:54:00,38.3,31.0,29.95,WSW,258,0.0,1.0,74,0.00,,,0.00,weatherlink.com 1.10,2013-03-22 03:54:00,